sensor_id;sensor_type;location;lat;lon;timestamp;P1;durP1;ratioP1;P2;durP2;ratioP2
17686;SDS011;8962;52.538;13.266;2023-04-28T00:01:14;7.53;;;4.30;;
17686;SDS011;8962;52.538;13.266;2023-04-28T00:03:41;9.73;;;4.68;;
17686;SDS011;8962;52.538;13.266;2023-04-28T00:06:11;10.93;;;4.60;;
17686;SDS011;8962;52.538;13.266;2023-04-28T00:08:38;7.55;;;4.70;;
17686;SDS011;8962;52.538;13.266;2023-04-28T00:11:08;6.97;;;4.43;;
17686;SDS011;8962;52.538;13.266;2023-04-28T00:13:35;8.38;;;4.38;;
17686;SDS011;8962;52.538;13.266;2023-04-28T00:16:03;9.38;;;4.28;;
17686;SDS011;8962;52.538;13.266;2023-04-28T00:18:30;8.15;;;4.50;;
17686;SDS011;8962;52.538;13.266;2023-04-28T00:20:59;11.50;;;4.35;;
17686;SDS011;8962;52.538;13.266;2023-04-28T00:23:28;8.85;;;4.70;;
17686;SDS011;8962;52.538;13.266;2023-04-28T00:25:55;9.85;;;4.80;;
17686;SDS011;8962;52.538;13.266;2023-04-28T00:28:22;10.13;;;4.43;;
17686;SDS011;8962;52.538;13.266;2023-04-28T00:30:49;8.13;;;4.00;;
17686;SDS011;8962;52.538;13.266;2023-04-28T00:33:17;9.00;;;4.45;;
17686;SDS011;8962;52.538;13.266;2023-04-28T00:35:44;9.15;;;4.47;;
17686;SDS011;8962;52.538;13.266;2023-04-28T00:38:12;8.55;;;4.30;;
17686;SDS011;8962;52.538;13.266;2023-04-28T00:40:42;10.82;;;4.47;;
17686;SDS011;8962;52.538;13.266;2023-04-28T00:43:09;8.30;;;3.80;;
17686;SDS011;8962;52.538;13.266;2023-04-28T00:45:36;8.02;;;4.10;;
17686;SDS011;8962;52.538;13.266;2023-04-28T00:48:06;8.07;;;4.25;;
17686;SDS011;8962;52.538;13.266;2023-04-28T00:50:33;7.35;;;3.58;;
17686;SDS011;8962;52.538;13.266;2023-04-28T00:53:00;7.82;;;4.00;;
17686;SDS011;8962;52.538;13.266;2023-04-28T00:55:29;7.57;;;4.10;;
17686;SDS011;8962;52.538;13.266;2023-04-28T00:58:00;7.15;;;4.13;;
17686;SDS011;8962;52.538;13.266;2023-04-28T01:00:28;7.75;;;3.97;;
17686;SDS011;8962;52.538;13.266;2023-04-28T01:02:56;7.28;;;4.20;;
17686;SDS011;8962;52.538;13.266;2023-04-28T01:05:27;8.55;;;4.28;;
17686;SDS011;8962;52.538;13.266;2023-04-28T01:07:56;10.93;;;4.30;;
17686;SDS011;8962;52.538;13.266;2023-04-28T01:10:23;8.43;;;4.10;;
17686;SDS011;8962;52.538;13.266;2023-04-28T01:12:51;6.68;;;3.88;;
17686;SDS011;8962;52.538;13.266;2023-04-28T01:15:20;6.05;;;3.83;;
17686;SDS011;8962;52.538;13.266;2023-04-28T01:17:50;15.07;;;5.18;;
17686;SDS011;8962;52.538;13.266;2023-04-28T01:20:17;8.65;;;4.20;;
17686;SDS011;8962;52.538;13.266;2023-04-28T01:22:46;9.75;;;4.20;;
17686;SDS011;8962;52.538;13.266;2023-04-28T01:25:15;7.63;;;4.43;;
17686;SDS011;8962;52.538;13.266;2023-04-28T01:27:43;7.25;;;4.25;;
17686;SDS011;8962;52.538;13.266;2023-04-28T01:30:10;7.15;;;4.20;;
17686;SDS011;8962;52.538;13.266;2023-04-28T01:32:37;10.00;;;4.47;;
17686;SDS011;8962;52.538;13.266;2023-04-28T01:35:05;7.95;;;4.18;;
17686;SDS011;8962;52.538;13.266;2023-04-28T01:37:34;6.90;;;4.40;;
17686;SDS011;8962;52.538;13.266;2023-04-28T01:40:01;9.50;;;4.72;;
17686;SDS011;8962;52.538;13.266;2023-04-28T01:42:31;9.18;;;4.93;;
17686;SDS011;8962;52.538;13.266;2023-04-28T01:45:00;8.20;;;4.72;;
17686;SDS011;8962;52.538;13.266;2023-04-28T01:47:29;9.05;;;4.75;;
17686;SDS011;8962;52.538;13.266;2023-04-28T01:49:56;8.75;;;5.18;;
17686;SDS011;8962;52.538;13.266;2023-04-28T01:52:23;12.88;;;5.30;;
17686;SDS011;8962;52.538;13.266;2023-04-28T01:54:52;9.23;;;4.85;;
17686;SDS011;8962;52.538;13.266;2023-04-28T01:57:20;10.73;;;5.28;;
17686;SDS011;8962;52.538;13.266;2023-04-28T01:59:48;11.68;;;5.50;;
17686;SDS011;8962;52.538;13.266;2023-04-28T02:02:16;10.02;;;4.90;;
17686;SDS011;8962;52.538;13.266;2023-04-28T02:04:43;9.10;;;5.32;;
17686;SDS011;8962;52.538;13.266;2023-04-28T02:07:10;12.10;;;5.57;;
17686;SDS011;8962;52.538;13.266;2023-04-28T02:09:37;11.45;;;5.28;;
17686;SDS011;8962;52.538;13.266;2023-04-28T02:12:05;9.35;;;5.43;;
17686;SDS011;8962;52.538;13.266;2023-04-28T02:14:32;9.15;;;4.70;;
17686;SDS011;8962;52.538;13.266;2023-04-28T02:17:00;10.05;;;5.75;;
17686;SDS011;8962;52.538;13.266;2023-04-28T02:19:31;11.48;;;5.80;;
17686;SDS011;8962;52.538;13.266;2023-04-28T02:22:00;11.05;;;6.18;;
17686;SDS011;8962;52.538;13.266;2023-04-28T02:24:27;12.02;;;5.40;;
17686;SDS011;8962;52.538;13.266;2023-04-28T02:26:56;12.90;;;6.05;;
17686;SDS011;8962;52.538;13.266;2023-04-28T02:29:26;9.57;;;5.80;;
17686;SDS011;8962;52.538;13.266;2023-04-28T02:31:56;13.20;;;6.22;;
17686;SDS011;8962;52.538;13.266;2023-04-28T02:34:25;11.95;;;5.47;;
17686;SDS011;8962;52.538;13.266;2023-04-28T02:36:52;11.07;;;6.00;;
17686;SDS011;8962;52.538;13.266;2023-04-28T02:39:19;14.15;;;6.03;;
17686;SDS011;8962;52.538;13.266;2023-04-28T02:41:51;12.02;;;6.50;;
17686;SDS011;8962;52.538;13.266;2023-04-28T02:44:18;11.88;;;6.22;;
17686;SDS011;8962;52.538;13.266;2023-04-28T02:46:47;9.93;;;6.30;;
17686;SDS011;8962;52.538;13.266;2023-04-28T02:49:14;12.60;;;6.20;;
17686;SDS011;8962;52.538;13.266;2023-04-28T02:51:43;11.48;;;5.75;;
17686;SDS011;8962;52.538;13.266;2023-04-28T02:54:10;9.23;;;6.20;;
17686;SDS011;8962;52.538;13.266;2023-04-28T02:56:37;11.10;;;5.57;;
17686;SDS011;8962;52.538;13.266;2023-04-28T02:59:05;10.90;;;5.70;;
17686;SDS011;8962;52.538;13.266;2023-04-28T03:01:32;11.45;;;6.10;;
17686;SDS011;8962;52.538;13.266;2023-04-28T03:04:00;12.38;;;6.55;;
17686;SDS011;8962;52.538;13.266;2023-04-28T03:06:27;12.00;;;6.60;;
17686;SDS011;8962;52.538;13.266;2023-04-28T03:08:56;10.60;;;6.45;;
17686;SDS011;8962;52.538;13.266;2023-04-28T03:11:23;10.85;;;5.97;;
17686;SDS011;8962;52.538;13.266;2023-04-28T03:13:50;11.45;;;6.07;;
17686;SDS011;8962;52.538;13.266;2023-04-28T03:16:17;12.32;;;6.00;;
17686;SDS011;8962;52.538;13.266;2023-04-28T03:18:45;11.32;;;6.35;;
17686;SDS011;8962;52.538;13.266;2023-04-28T03:21:12;17.10;;;6.53;;
17686;SDS011;8962;52.538;13.266;2023-04-28T03:23:40;13.27;;;6.97;;
17686;SDS011;8962;52.538;13.266;2023-04-28T03:26:08;10.60;;;6.00;;
17686;SDS011;8962;52.538;13.266;2023-04-28T03:28:35;13.18;;;6.60;;
17686;SDS011;8962;52.538;13.266;2023-04-28T03:31:03;10.93;;;5.68;;
17686;SDS011;8962;52.538;13.266;2023-04-28T03:33:30;9.88;;;5.95;;
17686;SDS011;8962;52.538;13.266;2023-04-28T03:35:58;11.63;;;6.25;;
17686;SDS011;8962;52.538;13.266;2023-04-28T03:38:25;12.68;;;6.07;;
17686;SDS011;8962;52.538;13.266;2023-04-28T03:40:53;13.32;;;5.55;;
17686;SDS011;8962;52.538;13.266;2023-04-28T03:43:53;13.73;;;6.07;;
17686;SDS011;8962;52.538;13.266;2023-04-28T03:46:29;10.63;;;5.45;;
17686;SDS011;8962;52.538;13.266;2023-04-28T03:48:57;15.15;;;5.75;;
17686;SDS011;8962;52.538;13.266;2023-04-28T03:51:26;11.63;;;5.70;;
17686;SDS011;8962;52.538;13.266;2023-04-28T03:53:53;9.25;;;6.22;;
17686;SDS011;8962;52.538;13.266;2023-04-28T03:56:21;13.15;;;5.75;;
17686;SDS011;8962;52.538;13.266;2023-04-28T03:58:49;14.60;;;5.50;;
17686;SDS011;8962;52.538;13.266;2023-04-28T04:01:18;10.52;;;5.70;;
17686;SDS011;8962;52.538;13.266;2023-04-28T04:03:47;13.30;;;5.95;;
17686;SDS011;8962;52.538;13.266;2023-04-28T04:06:14;10.15;;;5.50;;
17686;SDS011;8962;52.538;13.266;2023-04-28T04:08:41;9.48;;;5.05;;
17686;SDS011;8962;52.538;13.266;2023-04-28T04:11:08;12.80;;;5.45;;
17686;SDS011;8962;52.538;13.266;2023-04-28T04:13:35;8.32;;;5.30;;
17686;SDS011;8962;52.538;13.266;2023-04-28T04:16:06;9.82;;;6.13;;
17686;SDS011;8962;52.538;13.266;2023-04-28T04:18:35;10.18;;;5.90;;
17686;SDS011;8962;52.538;13.266;2023-04-28T04:21:29;9.13;;;5.70;;
17686;SDS011;8962;52.538;13.266;2023-04-28T04:23:57;11.63;;;5.45;;
17686;SDS011;8962;52.538;13.266;2023-04-28T04:26:26;10.63;;;5.82;;
17686;SDS011;8962;52.538;13.266;2023-04-28T04:28:53;9.38;;;5.38;;
17686;SDS011;8962;52.538;13.266;2023-04-28T04:31:20;9.38;;;5.10;;
17686;SDS011;8962;52.538;13.266;2023-04-28T04:33:49;8.60;;;5.47;;
17686;SDS011;8962;52.538;13.266;2023-04-28T04:36:18;8.77;;;4.88;;
17686;SDS011;8962;52.538;13.266;2023-04-28T04:38:46;9.70;;;5.18;;
17686;SDS011;8962;52.538;13.266;2023-04-28T04:41:15;9.57;;;5.30;;
17686;SDS011;8962;52.538;13.266;2023-04-28T04:43:45;9.77;;;5.43;;
17686;SDS011;8962;52.538;13.266;2023-04-28T04:46:13;12.45;;;5.28;;
17686;SDS011;8962;52.538;13.266;2023-04-28T04:48:40;9.85;;;5.15;;
17686;SDS011;8962;52.538;13.266;2023-04-28T04:51:09;11.70;;;5.35;;
17686;SDS011;8962;52.538;13.266;2023-04-28T04:53:36;11.55;;;5.00;;
17686;SDS011;8962;52.538;13.266;2023-04-28T04:56:04;11.43;;;4.97;;
17686;SDS011;8962;52.538;13.266;2023-04-28T04:58:34;11.23;;;5.05;;
17686;SDS011;8962;52.538;13.266;2023-04-28T05:01:33;9.93;;;4.82;;
17686;SDS011;8962;52.538;13.266;2023-04-28T05:04:00;9.07;;;4.97;;
17686;SDS011;8962;52.538;13.266;2023-04-28T05:06:29;9.15;;;5.30;;
17686;SDS011;8962;52.538;13.266;2023-04-28T05:08:56;8.80;;;5.03;;
17686;SDS011;8962;52.538;13.266;2023-04-28T05:11:24;11.60;;;5.10;;
17686;SDS011;8962;52.538;13.266;2023-04-28T05:13:51;9.00;;;4.93;;
17686;SDS011;8962;52.538;13.266;2023-04-28T05:16:18;8.63;;;4.95;;
17686;SDS011;8962;52.538;13.266;2023-04-28T05:18:46;8.48;;;4.75;;
17686;SDS011;8962;52.538;13.266;2023-04-28T05:21:15;10.68;;;5.43;;
17686;SDS011;8962;52.538;13.266;2023-04-28T05:23:44;10.27;;;4.82;;
17686;SDS011;8962;52.538;13.266;2023-04-28T05:26:12;9.57;;;5.15;;
17686;SDS011;8962;52.538;13.266;2023-04-28T05:28:40;9.95;;;4.80;;
17686;SDS011;8962;52.538;13.266;2023-04-28T05:31:07;12.90;;;5.10;;
17686;SDS011;8962;52.538;13.266;2023-04-28T05:33:35;10.07;;;4.93;;
17686;SDS011;8962;52.538;13.266;2023-04-28T05:36:03;11.52;;;4.45;;
17686;SDS011;8962;52.538;13.266;2023-04-28T05:38:31;10.18;;;5.32;;
17686;SDS011;8962;52.538;13.266;2023-04-28T05:41:00;10.18;;;4.90;;
17686;SDS011;8962;52.538;13.266;2023-04-28T05:43:27;10.98;;;4.72;;
17686;SDS011;8962;52.538;13.266;2023-04-28T05:45:55;8.70;;;4.72;;
17686;SDS011;8962;52.538;13.266;2023-04-28T05:48:22;10.52;;;5.20;;
17686;SDS011;8962;52.538;13.266;2023-04-28T05:50:50;15.77;;;5.10;;
17686;SDS011;8962;52.538;13.266;2023-04-28T05:53:18;9.13;;;5.10;;
17686;SDS011;8962;52.538;13.266;2023-04-28T05:55:46;13.63;;;5.20;;
17686;SDS011;8962;52.538;13.266;2023-04-28T05:58:16;14.02;;;4.65;;
17686;SDS011;8962;52.538;13.266;2023-04-28T06:00:44;11.43;;;5.35;;
17686;SDS011;8962;52.538;13.266;2023-04-28T06:03:11;10.88;;;4.85;;
17686;SDS011;8962;52.538;13.266;2023-04-28T06:05:40;8.07;;;5.00;;
17686;SDS011;8962;52.538;13.266;2023-04-28T06:08:08;12.07;;;4.82;;
17686;SDS011;8962;52.538;13.266;2023-04-28T06:10:36;13.05;;;5.07;;
17686;SDS011;8962;52.538;13.266;2023-04-28T06:13:04;12.98;;;5.50;;
17686;SDS011;8962;52.538;13.266;2023-04-28T06:15:33;8.30;;;4.75;;
17686;SDS011;8962;52.538;13.266;2023-04-28T06:18:00;11.70;;;5.55;;
17686;SDS011;8962;52.538;13.266;2023-04-28T06:20:27;9.25;;;4.88;;
17686;SDS011;8962;52.538;13.266;2023-04-28T06:22:55;8.43;;;5.07;;
17686;SDS011;8962;52.538;13.266;2023-04-28T06:25:22;9.90;;;5.05;;
17686;SDS011;8962;52.538;13.266;2023-04-28T06:27:50;9.10;;;4.47;;
17686;SDS011;8962;52.538;13.266;2023-04-28T06:30:18;8.95;;;4.53;;
17686;SDS011;8962;52.538;13.266;2023-04-28T06:32:48;12.35;;;5.47;;
17686;SDS011;8962;52.538;13.266;2023-04-28T06:35:16;11.32;;;5.25;;
17686;SDS011;8962;52.538;13.266;2023-04-28T06:37:43;15.35;;;4.95;;
17686;SDS011;8962;52.538;13.266;2023-04-28T06:40:11;13.13;;;5.32;;
17686;SDS011;8962;52.538;13.266;2023-04-28T06:42:47;8.13;;;5.28;;
17686;SDS011;8962;52.538;13.266;2023-04-28T06:45:20;12.80;;;5.60;;
17686;SDS011;8962;52.538;13.266;2023-04-28T06:47:49;9.20;;;4.65;;
17686;SDS011;8962;52.538;13.266;2023-04-28T06:50:19;11.52;;;5.15;;
17686;SDS011;8962;52.538;13.266;2023-04-28T06:52:47;13.05;;;5.10;;
17686;SDS011;8962;52.538;13.266;2023-04-28T06:55:15;12.90;;;5.13;;
17686;SDS011;8962;52.538;13.266;2023-04-28T06:57:42;32.22;;;6.97;;
17686;SDS011;8962;52.538;13.266;2023-04-28T07:00:10;12.70;;;5.30;;
17686;SDS011;8962;52.538;13.266;2023-04-28T07:02:38;9.85;;;5.18;;
17686;SDS011;8962;52.538;13.266;2023-04-28T07:05:07;10.73;;;5.10;;
17686;SDS011;8962;52.538;13.266;2023-04-28T07:07:35;11.77;;;5.22;;
17686;SDS011;8962;52.538;13.266;2023-04-28T07:10:04;9.75;;;5.53;;
17686;SDS011;8962;52.538;13.266;2023-04-28T07:12:31;9.65;;;5.20;;
17686;SDS011;8962;52.538;13.266;2023-04-28T07:14:58;11.93;;;5.20;;
17686;SDS011;8962;52.538;13.266;2023-04-28T07:17:25;7.97;;;5.20;;
17686;SDS011;8962;52.538;13.266;2023-04-28T07:19:53;11.10;;;5.63;;
17686;SDS011;8962;52.538;13.266;2023-04-28T07:22:21;10.40;;;5.10;;
17686;SDS011;8962;52.538;13.266;2023-04-28T07:24:49;9.90;;;4.60;;
17686;SDS011;8962;52.538;13.266;2023-04-28T07:27:16;11.30;;;5.22;;
17686;SDS011;8962;52.538;13.266;2023-04-28T07:29:43;8.13;;;4.93;;
17686;SDS011;8962;52.538;13.266;2023-04-28T07:32:11;16.70;;;4.55;;
17686;SDS011;8962;52.538;13.266;2023-04-28T07:34:38;9.15;;;4.68;;
17686;SDS011;8962;52.538;13.266;2023-04-28T07:37:05;13.20;;;4.50;;
17686;SDS011;8962;52.538;13.266;2023-04-28T07:39:33;10.45;;;4.28;;
17686;SDS011;8962;52.538;13.266;2023-04-28T07:42:03;8.55;;;4.40;;
17686;SDS011;8962;52.538;13.266;2023-04-28T07:44:30;8.20;;;4.30;;
17686;SDS011;8962;52.538;13.266;2023-04-28T07:46:58;9.45;;;4.53;;
17686;SDS011;8962;52.538;13.266;2023-04-28T07:49:26;10.15;;;4.78;;
17686;SDS011;8962;52.538;13.266;2023-04-28T07:51:54;10.23;;;4.75;;
17686;SDS011;8962;52.538;13.266;2023-04-28T07:54:22;11.20;;;4.38;;
17686;SDS011;8962;52.538;13.266;2023-04-28T07:56:52;8.88;;;4.47;;
17686;SDS011;8962;52.538;13.266;2023-04-28T07:59:19;8.88;;;4.20;;
17686;SDS011;8962;52.538;13.266;2023-04-28T08:01:46;11.98;;;4.63;;
17686;SDS011;8962;52.538;13.266;2023-04-28T08:04:13;9.13;;;4.20;;
17686;SDS011;8962;52.538;13.266;2023-04-28T08:06:40;12.13;;;4.68;;
17686;SDS011;8962;52.538;13.266;2023-04-28T08:09:08;8.48;;;4.43;;
17686;SDS011;8962;52.538;13.266;2023-04-28T08:11:35;8.98;;;4.50;;
17686;SDS011;8962;52.538;13.266;2023-04-28T08:14:04;9.93;;;4.53;;
17686;SDS011;8962;52.538;13.266;2023-04-28T08:16:31;12.57;;;5.22;;
17686;SDS011;8962;52.538;13.266;2023-04-28T08:19:00;9.18;;;4.63;;
17686;SDS011;8962;52.538;13.266;2023-04-28T08:21:27;7.38;;;4.50;;
17686;SDS011;8962;52.538;13.266;2023-04-28T08:23:54;11.93;;;4.95;;
17686;SDS011;8962;52.538;13.266;2023-04-28T08:26:22;9.77;;;4.85;;
17686;SDS011;8962;52.538;13.266;2023-04-28T08:28:50;13.82;;;4.80;;
17686;SDS011;8962;52.538;13.266;2023-04-28T08:31:20;10.00;;;5.18;;
17686;SDS011;8962;52.538;13.266;2023-04-28T08:33:48;13.68;;;5.13;;
17686;SDS011;8962;52.538;13.266;2023-04-28T08:36:15;12.48;;;4.60;;
17686;SDS011;8962;52.538;13.266;2023-04-28T08:38:43;14.60;;;4.50;;
17686;SDS011;8962;52.538;13.266;2023-04-28T08:41:11;9.35;;;4.85;;
17686;SDS011;8962;52.538;13.266;2023-04-28T08:43:41;13.95;;;5.60;;
17686;SDS011;8962;52.538;13.266;2023-04-28T08:46:09;9.95;;;5.35;;
17686;SDS011;8962;52.538;13.266;2023-04-28T08:48:39;10.95;;;6.22;;
17686;SDS011;8962;52.538;13.266;2023-04-28T08:51:09;9.70;;;5.28;;
17686;SDS011;8962;52.538;13.266;2023-04-28T08:53:43;12.60;;;4.80;;
17686;SDS011;8962;52.538;13.266;2023-04-28T08:56:13;9.40;;;4.78;;
17686;SDS011;8962;52.538;13.266;2023-04-28T08:58:43;11.27;;;4.97;;
17686;SDS011;8962;52.538;13.266;2023-04-28T09:01:12;9.88;;;4.45;;
17686;SDS011;8962;52.538;13.266;2023-04-28T09:03:42;8.50;;;4.28;;
17686;SDS011;8962;52.538;13.266;2023-04-28T09:06:11;11.68;;;5.20;;
17686;SDS011;8962;52.538;13.266;2023-04-28T09:08:39;10.45;;;4.28;;
17686;SDS011;8962;52.538;13.266;2023-04-28T09:11:06;7.82;;;4.82;;
17686;SDS011;8962;52.538;13.266;2023-04-28T09:13:34;12.23;;;5.32;;
17686;SDS011;8962;52.538;13.266;2023-04-28T09:16:02;11.80;;;4.95;;
17686;SDS011;8962;52.538;13.266;2023-04-28T09:18:30;10.55;;;4.75;;
17686;SDS011;8962;52.538;13.266;2023-04-28T09:21:06;11.38;;;4.60;;
17686;SDS011;8962;52.538;13.266;2023-04-28T09:23:34;13.15;;;5.10;;
17686;SDS011;8962;52.538;13.266;2023-04-28T09:26:13;12.32;;;6.63;;
17686;SDS011;8962;52.538;13.266;2023-04-28T09:28:40;14.23;;;5.60;;
17686;SDS011;8962;52.538;13.266;2023-04-28T09:31:20;11.43;;;5.40;;
17686;SDS011;8962;52.538;13.266;2023-04-28T09:33:55;11.38;;;5.18;;
17686;SDS011;8962;52.538;13.266;2023-04-28T09:36:26;11.15;;;5.03;;
17686;SDS011;8962;52.538;13.266;2023-04-28T09:38:56;10.40;;;5.30;;
17686;SDS011;8962;52.538;13.266;2023-04-28T09:41:33;9.02;;;4.93;;
17686;SDS011;8962;52.538;13.266;2023-04-28T09:44:09;8.80;;;5.30;;
17686;SDS011;8962;52.538;13.266;2023-04-28T09:46:37;11.32;;;4.97;;
17686;SDS011;8962;52.538;13.266;2023-04-28T09:49:04;8.68;;;4.70;;
17686;SDS011;8962;52.538;13.266;2023-04-28T09:51:34;8.68;;;4.97;;
17686;SDS011;8962;52.538;13.266;2023-04-28T09:54:01;17.73;;;5.28;;
17686;SDS011;8962;52.538;13.266;2023-04-28T09:56:29;11.10;;;5.30;;
17686;SDS011;8962;52.538;13.266;2023-04-28T09:58:57;9.75;;;5.47;;
17686;SDS011;8962;52.538;13.266;2023-04-28T10:01:26;9.80;;;5.20;;
17686;SDS011;8962;52.538;13.266;2023-04-28T10:03:56;11.98;;;5.53;;
17686;SDS011;8962;52.538;13.266;2023-04-28T10:06:25;11.88;;;5.38;;
17686;SDS011;8962;52.538;13.266;2023-04-28T10:08:55;14.88;;;5.45;;
17686;SDS011;8962;52.538;13.266;2023-04-28T10:11:24;14.60;;;6.13;;
17686;SDS011;8962;52.538;13.266;2023-04-28T10:13:53;11.20;;;6.45;;
17686;SDS011;8962;52.538;13.266;2023-04-28T10:16:21;10.63;;;5.97;;
17686;SDS011;8962;52.538;13.266;2023-04-28T10:18:49;8.25;;;5.22;;
17686;SDS011;8962;52.538;13.266;2023-04-28T10:21:18;13.90;;;7.45;;
17686;SDS011;8962;52.538;13.266;2023-04-28T10:23:57;12.90;;;5.30;;
17686;SDS011;8962;52.538;13.266;2023-04-28T10:29:27;12.40;;;6.50;;
17686;SDS011;8962;52.538;13.266;2023-04-28T10:32:15;10.52;;;5.97;;
17686;SDS011;8962;52.538;13.266;2023-04-28T10:34:44;11.63;;;5.88;;
17686;SDS011;8962;52.538;13.266;2023-04-28T10:37:14;12.02;;;5.53;;
17686;SDS011;8962;52.538;13.266;2023-04-28T10:42:51;13.65;;;6.15;;
17686;SDS011;8962;52.538;13.266;2023-04-28T10:51:32;9.27;;;5.38;;
17686;SDS011;8962;52.538;13.266;2023-04-28T10:54:12;11.48;;;6.05;;
17686;SDS011;8962;52.538;13.266;2023-04-28T10:56:41;18.00;;;7.60;;
17686;SDS011;8962;52.538;13.266;2023-04-28T10:59:47;16.45;;;7.28;;
17686;SDS011;8962;52.538;13.266;2023-04-28T11:05:14;13.43;;;6.43;;
17686;SDS011;8962;52.538;13.266;2023-04-28T11:11:20;9.88;;;5.57;;
17686;SDS011;8962;52.538;13.266;2023-04-28T11:13:50;10.57;;;5.15;;
17686;SDS011;8962;52.538;13.266;2023-04-28T11:16:22;13.77;;;6.07;;
17686;SDS011;8962;52.538;13.266;2023-04-28T11:18:55;13.88;;;5.95;;
17686;SDS011;8962;52.538;13.266;2023-04-28T11:21:31;11.77;;;5.40;;
17686;SDS011;8962;52.538;13.266;2023-04-28T11:23:59;10.63;;;5.45;;
17686;SDS011;8962;52.538;13.266;2023-04-28T11:26:26;15.63;;;5.78;;
17686;SDS011;8962;52.538;13.266;2023-04-28T11:28:56;12.77;;;5.53;;
17686;SDS011;8962;52.538;13.266;2023-04-28T11:31:24;7.72;;;5.15;;
17686;SDS011;8962;52.538;13.266;2023-04-28T11:33:54;8.95;;;5.55;;
17686;SDS011;8962;52.538;13.266;2023-04-28T11:36:25;10.15;;;5.82;;
17686;SDS011;8962;52.538;13.266;2023-04-28T11:38:56;12.75;;;5.90;;
17686;SDS011;8962;52.538;13.266;2023-04-28T11:41:23;12.32;;;6.63;;
17686;SDS011;8962;52.538;13.266;2023-04-28T11:43:50;9.30;;;6.15;;
17686;SDS011;8962;52.538;13.266;2023-04-28T11:46:20;12.05;;;5.80;;
17686;SDS011;8962;52.538;13.266;2023-04-28T11:48:48;10.48;;;6.07;;
17686;SDS011;8962;52.538;13.266;2023-04-28T11:51:34;9.38;;;6.35;;
17686;SDS011;8962;52.538;13.266;2023-04-28T11:54:03;10.65;;;6.63;;
17686;SDS011;8962;52.538;13.266;2023-04-28T11:56:35;14.50;;;7.65;;
17686;SDS011;8962;52.538;13.266;2023-04-28T11:59:05;12.68;;;6.30;;
17686;SDS011;8962;52.538;13.266;2023-04-28T12:01:42;15.05;;;6.25;;
17686;SDS011;8962;52.538;13.266;2023-04-28T12:04:11;13.85;;;7.13;;
17686;SDS011;8962;52.538;13.266;2023-04-28T12:06:38;10.43;;;6.32;;
17686;SDS011;8962;52.538;13.266;2023-04-28T12:09:17;12.82;;;6.25;;
17686;SDS011;8962;52.538;13.266;2023-04-28T12:11:52;9.80;;;6.20;;
17686;SDS011;8962;52.538;13.266;2023-04-28T12:14:21;13.18;;;6.65;;
17686;SDS011;8962;52.538;13.266;2023-04-28T12:16:50;11.48;;;6.40;;
17686;SDS011;8962;52.538;13.266;2023-04-28T12:19:17;12.75;;;6.57;;
17686;SDS011;8962;52.538;13.266;2023-04-28T12:22:01;12.07;;;6.20;;
17686;SDS011;8962;52.538;13.266;2023-04-28T12:24:30;12.80;;;6.13;;
17686;SDS011;8962;52.538;13.266;2023-04-28T12:27:18;15.07;;;7.47;;
17686;SDS011;8962;52.538;13.266;2023-04-28T12:29:49;12.82;;;7.65;;
17686;SDS011;8962;52.538;13.266;2023-04-28T12:32:18;10.90;;;6.38;;
17686;SDS011;8962;52.538;13.266;2023-04-28T12:34:45;11.25;;;6.65;;
17686;SDS011;8962;52.538;13.266;2023-04-28T12:37:14;12.80;;;6.60;;
17686;SDS011;8962;52.538;13.266;2023-04-28T12:39:41;13.15;;;6.53;;
17686;SDS011;8962;52.538;13.266;2023-04-28T12:42:08;21.00;;;12.30;;
17686;SDS011;8962;52.538;13.266;2023-04-28T12:44:36;10.98;;;6.63;;
17686;SDS011;8962;52.538;13.266;2023-04-28T12:47:04;9.60;;;6.07;;
17686;SDS011;8962;52.538;13.266;2023-04-28T12:49:34;14.68;;;6.43;;
17686;SDS011;8962;52.538;13.266;2023-04-28T12:52:02;12.15;;;7.03;;
17686;SDS011;8962;52.538;13.266;2023-04-28T12:54:30;14.32;;;7.03;;
17686;SDS011;8962;52.538;13.266;2023-04-28T12:56:59;14.68;;;6.78;;
17686;SDS011;8962;52.538;13.266;2023-04-28T12:59:27;13.98;;;6.88;;
17686;SDS011;8962;52.538;13.266;2023-04-28T13:01:54;13.30;;;6.25;;
17686;SDS011;8962;52.538;13.266;2023-04-28T13:04:21;14.93;;;6.55;;
17686;SDS011;8962;52.538;13.266;2023-04-28T13:06:50;13.75;;;6.20;;
17686;SDS011;8962;52.538;13.266;2023-04-28T13:09:18;12.38;;;6.53;;
17686;SDS011;8962;52.538;13.266;2023-04-28T13:11:45;13.00;;;5.57;;
17686;SDS011;8962;52.538;13.266;2023-04-28T13:14:12;16.30;;;6.80;;
17686;SDS011;8962;52.538;13.266;2023-04-28T13:16:39;11.07;;;6.28;;
17686;SDS011;8962;52.538;13.266;2023-04-28T13:19:07;10.02;;;5.65;;
17686;SDS011;8962;52.538;13.266;2023-04-28T13:21:38;11.98;;;5.70;;
17686;SDS011;8962;52.538;13.266;2023-04-28T13:24:07;11.45;;;5.20;;
17686;SDS011;8962;52.538;13.266;2023-04-28T13:26:35;13.10;;;5.72;;
17686;SDS011;8962;52.538;13.266;2023-04-28T13:29:03;10.18;;;5.68;;
17686;SDS011;8962;52.538;13.266;2023-04-28T13:31:32;8.85;;;5.68;;
17686;SDS011;8962;52.538;13.266;2023-04-28T13:33:59;11.75;;;5.50;;
17686;SDS011;8962;52.538;13.266;2023-04-28T13:36:28;10.18;;;4.97;;
17686;SDS011;8962;52.538;13.266;2023-04-28T13:38:55;17.27;;;6.30;;
17686;SDS011;8962;52.538;13.266;2023-04-28T13:41:24;14.35;;;5.22;;
17686;SDS011;8962;52.538;13.266;2023-04-28T13:43:51;10.27;;;5.50;;
17686;SDS011;8962;52.538;13.266;2023-04-28T13:46:19;14.80;;;5.88;;
17686;SDS011;8962;52.538;13.266;2023-04-28T13:48:48;11.77;;;5.80;;
17686;SDS011;8962;52.538;13.266;2023-04-28T13:51:16;12.10;;;5.50;;
17686;SDS011;8962;52.538;13.266;2023-04-28T13:53:43;14.05;;;5.57;;
17686;SDS011;8962;52.538;13.266;2023-04-28T13:56:10;11.45;;;6.22;;
17686;SDS011;8962;52.538;13.266;2023-04-28T13:58:39;9.52;;;5.82;;
17686;SDS011;8962;52.538;13.266;2023-04-28T14:01:06;14.57;;;6.80;;
17686;SDS011;8962;52.538;13.266;2023-04-28T14:03:33;10.30;;;6.15;;
17686;SDS011;8962;52.538;13.266;2023-04-28T14:06:01;11.63;;;7.00;;
17686;SDS011;8962;52.538;13.266;2023-04-28T14:08:29;20.77;;;8.98;;
17686;SDS011;8962;52.538;13.266;2023-04-28T14:10:56;12.27;;;6.63;;
17686;SDS011;8962;52.538;13.266;2023-04-28T14:13:23;10.55;;;6.15;;
17686;SDS011;8962;52.538;13.266;2023-04-28T14:15:52;12.32;;;5.97;;
17686;SDS011;8962;52.538;13.266;2023-04-28T14:18:19;9.43;;;5.30;;
17686;SDS011;8962;52.538;13.266;2023-04-28T14:20:47;10.50;;;5.88;;
17686;SDS011;8962;52.538;13.266;2023-04-28T14:23:14;19.05;;;7.55;;
17686;SDS011;8962;52.538;13.266;2023-04-28T14:25:41;16.23;;;7.10;;
17686;SDS011;8962;52.538;13.266;2023-04-28T14:28:08;12.13;;;6.25;;
17686;SDS011;8962;52.538;13.266;2023-04-28T14:30:36;16.13;;;6.60;;
17686;SDS011;8962;52.538;13.266;2023-04-28T14:33:05;12.02;;;6.25;;
17686;SDS011;8962;52.538;13.266;2023-04-28T14:35:32;10.93;;;7.38;;
17686;SDS011;8962;52.538;13.266;2023-04-28T14:38:00;11.15;;;5.93;;
17686;SDS011;8962;52.538;13.266;2023-04-28T14:40:27;17.80;;;6.72;;
17686;SDS011;8962;52.538;13.266;2023-04-28T14:42:54;12.90;;;7.70;;
17686;SDS011;8962;52.538;13.266;2023-04-28T14:45:21;11.07;;;6.38;;
17686;SDS011;8962;52.538;13.266;2023-04-28T14:47:49;18.20;;;7.72;;
17686;SDS011;8962;52.538;13.266;2023-04-28T14:50:17;13.55;;;6.90;;
17686;SDS011;8962;52.538;13.266;2023-04-28T14:52:45;14.18;;;7.35;;
17686;SDS011;8962;52.538;13.266;2023-04-28T14:55:12;15.60;;;7.00;;
17686;SDS011;8962;52.538;13.266;2023-04-28T14:57:39;13.85;;;6.47;;
17686;SDS011;8962;52.538;13.266;2023-04-28T15:00:07;12.32;;;6.90;;
17686;SDS011;8962;52.538;13.266;2023-04-28T15:02:34;9.90;;;5.63;;
17686;SDS011;8962;52.538;13.266;2023-04-28T15:05:02;13.63;;;7.13;;
17686;SDS011;8962;52.538;13.266;2023-04-28T15:07:31;12.68;;;6.57;;